sensor_id;sensor_type;location;lat;lon;timestamp;pressure;altitude;pressure_sealevel;temperature;humidity
23677;BME280;31493;49.058;12.190;2023-04-19T00:02:07;96593.66;;;7.27;100.00
23677;BME280;31493;49.058;12.190;2023-04-19T00:04:34;96590.44;;;7.22;100.00
23677;BME280;31493;49.058;12.190;2023-04-19T00:07:02;96597.81;;;7.30;100.00
23677;BME280;31493;49.058;12.190;2023-04-19T00:09:31;96586.00;;;7.25;100.00
23677;BME280;31493;49.058;12.190;2023-04-19T00:11:58;96583.72;;;7.19;100.00
23677;BME280;31493;49.058;12.190;2023-04-19T00:14:25;96580.56;;;7.32;100.00
23677;BME280;31493;49.058;12.190;2023-04-19T00:16:52;96576.00;;;7.19;100.00
23677;BME280;31493;49.058;12.190;2023-04-19T00:19:20;96573.06;;;7.08;100.00
23677;BME280;31493;49.058;12.190;2023-04-19T00:21:48;96573.69;;;7.13;100.00
23677;BME280;31493;49.058;12.190;2023-04-19T00:24:15;96571.97;;;7.14;100.00
23677;BME280;31493;49.058;12.190;2023-04-19T00:26:43;96572.78;;;7.14;100.00
23677;BME280;31493;49.058;12.190;2023-04-19T00:29:10;96566.03;;;7.12;100.00
23677;BME280;31493;49.058;12.190;2023-04-19T00:31:37;96568.31;;;7.18;100.00
23677;BME280;31493;49.058;12.190;2023-04-19T00:34:05;96562.41;;;7.16;100.00
23677;BME280;31493;49.058;12.190;2023-04-19T00:36:32;96557.06;;;7.02;100.00
23677;BME280;31493;49.058;12.190;2023-04-19T00:38:59;96549.34;;;7.02;100.00
23677;BME280;31493;49.058;12.190;2023-04-19T00:41:26;96549.72;;;6.94;100.00
23677;BME280;31493;49.058;12.190;2023-04-19T00:43:55;96549.97;;;7.07;100.00
23677;BME280;31493;49.058;12.190;2023-04-19T00:46:22;96550.38;;;6.97;100.00
23677;BME280;31493;49.058;12.190;2023-04-19T00:48:49;96544.56;;;6.94;100.00
23677;BME280;31493;49.058;12.190;2023-04-19T00:51:16;96543.97;;;6.87;100.00
23677;BME280;31493;49.058;12.190;2023-04-19T00:53:44;96544.88;;;6.86;100.00
23677;BME280;31493;49.058;12.190;2023-04-19T00:56:12;96538.63;;;6.92;100.00
23677;BME280;31493;49.058;12.190;2023-04-19T00:58:40;96534.53;;;6.88;100.00
23677;BME280;31493;49.058;12.190;2023-04-19T01:01:08;96533.22;;;6.79;100.00
23677;BME280;31493;49.058;12.190;2023-04-19T01:03:36;96530.56;;;6.81;100.00
23677;BME280;31493;49.058;12.190;2023-04-19T01:06:03;96523.13;;;6.74;100.00
23677;BME280;31493;49.058;12.190;2023-04-19T01:08:30;96528.25;;;6.74;100.00
23677;BME280;31493;49.058;12.190;2023-04-19T01:10:57;96527.44;;;6.74;100.00
23677;BME280;31493;49.058;12.190;2023-04-19T01:13:24;96516.22;;;6.75;100.00
23677;BME280;31493;49.058;12.190;2023-04-19T01:15:53;96516.75;;;6.64;100.00
23677;BME280;31493;49.058;12.190;2023-04-19T01:18:22;96521.16;;;6.61;100.00
23677;BME280;31493;49.058;12.190;2023-04-19T01:20:50;96514.56;;;6.55;100.00
23677;BME280;31493;49.058;12.190;2023-04-19T01:23:19;96519.97;;;6.49;100.00
23677;BME280;31493;49.058;12.190;2023-04-19T01:25:46;96514.16;;;6.45;100.00
23677;BME280;31493;49.058;12.190;2023-04-19T01:28:13;96507.34;;;6.44;100.00
23677;BME280;31493;49.058;12.190;2023-04-19T01:30:40;96504.97;;;6.40;100.00
23677;BME280;31493;49.058;12.190;2023-04-19T01:33:07;96510.13;;;6.40;100.00
23677;BME280;31493;49.058;12.190;2023-04-19T01:35:34;96505.09;;;6.37;100.00
23677;BME280;31493;49.058;12.190;2023-04-19T01:38:01;96504.41;;;6.33;100.00
23677;BME280;31493;49.058;12.190;2023-04-19T01:40:29;96499.28;;;6.33;100.00
23677;BME280;31493;49.058;12.190;2023-04-19T01:42:57;96488.19;;;6.31;100.00
23677;BME280;31493;49.058;12.190;2023-04-19T01:45:24;96504.59;;;6.29;100.00
23677;BME280;31493;49.058;12.190;2023-04-19T01:47:51;96482.38;;;6.28;100.00
23677;BME280;31493;49.058;12.190;2023-04-19T01:50:18;96487.78;;;6.22;100.00
23677;BME280;31493;49.058;12.190;2023-04-19T01:52:45;96499.81;;;6.21;100.00
23677;BME280;31493;49.058;12.190;2023-04-19T01:55:12;96479.25;;;6.21;100.00
23677;BME280;31493;49.058;12.190;2023-04-19T01:57:40;96490.34;;;6.22;100.00
23677;BME280;31493;49.058;12.190;2023-04-19T02:00:08;96483.03;;;6.12;100.00
23677;BME280;31493;49.058;12.190;2023-04-19T02:02:35;96496.72;;;6.13;100.00
23677;BME280;31493;49.058;12.190;2023-04-19T02:05:03;96494.28;;;6.10;100.00
23677;BME280;31493;49.058;12.190;2023-04-19T02:07:30;96488.31;;;6.09;100.00
23677;BME280;31493;49.058;12.190;2023-04-19T02:09:57;96488.50;;;6.05;100.00
23677;BME280;31493;49.058;12.190;2023-04-19T02:12:25;96489.97;;;6.10;100.00
23677;BME280;31493;49.058;12.190;2023-04-19T02:14:54;96470.44;;;6.06;100.00
23677;BME280;31493;49.058;12.190;2023-04-19T02:17:22;96460.81;;;6.11;100.00
23677;BME280;31493;49.058;12.190;2023-04-19T02:19:49;96484.13;;;6.07;100.00
23677;BME280;31493;49.058;12.190;2023-04-19T02:22:17;96479.69;;;6.10;100.00
23677;BME280;31493;49.058;12.190;2023-04-19T02:24:44;96464.47;;;6.06;100.00
23677;BME280;31493;49.058;12.190;2023-04-19T02:27:12;96475.59;;;6.06;100.00
23677;BME280;31493;49.058;12.190;2023-04-19T02:29:39;96467.88;;;6.06;100.00
23677;BME280;31493;49.058;12.190;2023-04-19T02:32:07;96473.34;;;5.99;100.00
23677;BME280;31493;49.058;12.190;2023-04-19T02:34:34;96467.31;;;6.00;100.00
23677;BME280;31493;49.058;12.190;2023-04-19T02:37:01;96473.28;;;6.00;100.00
23677;BME280;31493;49.058;12.190;2023-04-19T02:39:28;96464.06;;;5.96;100.00
23677;BME280;31493;49.058;12.190;2023-04-19T02:41:56;96471.63;;;5.99;100.00
23677;BME280;31493;49.058;12.190;2023-04-19T02:44:23;96461.72;;;6.10;100.00
23677;BME280;31493;49.058;12.190;2023-04-19T02:46:50;96452.41;;;6.08;100.00
23677;BME280;31493;49.058;12.190;2023-04-19T02:49:19;96459.22;;;6.09;100.00
23677;BME280;31493;49.058;12.190;2023-04-19T02:51:46;96454.44;;;6.20;100.00
23677;BME280;31493;49.058;12.190;2023-04-19T02:54:13;96447.94;;;6.11;100.00
23677;BME280;31493;49.058;12.190;2023-04-19T02:56:40;96453.16;;;6.10;100.00
23677;BME280;31493;49.058;12.190;2023-04-19T02:59:07;96449.69;;;6.11;100.00
23677;BME280;31493;49.058;12.190;2023-04-19T03:01:34;96447.00;;;6.14;100.00
23677;BME280;31493;49.058;12.190;2023-04-19T03:04:01;96443.28;;;6.19;100.00
23677;BME280;31493;49.058;12.190;2023-04-19T03:06:30;96436.44;;;6.20;100.00
23677;BME280;31493;49.058;12.190;2023-04-19T03:08:57;96443.38;;;6.18;100.00
23677;BME280;31493;49.058;12.190;2023-04-19T03:11:24;96439.06;;;6.18;100.00
23677;BME280;31493;49.058;12.190;2023-04-19T03:13:51;96433.59;;;6.26;100.00
23677;BME280;31493;49.058;12.190;2023-04-19T03:16:18;96436.22;;;6.25;100.00
23677;BME280;31493;49.058;12.190;2023-04-19T03:18:46;96430.25;;;6.24;100.00
23677;BME280;31493;49.058;12.190;2023-04-19T03:21:13;96428.47;;;6.26;100.00
23677;BME280;31493;49.058;12.190;2023-04-19T03:23:41;96429.41;;;6.24;100.00
23677;BME280;31493;49.058;12.190;2023-04-19T03:26:08;96420.78;;;6.25;100.00
23677;BME280;31493;49.058;12.190;2023-04-19T03:28:35;96413.34;;;6.18;100.00
23677;BME280;31493;49.058;12.190;2023-04-19T03:31:02;96419.28;;;6.21;100.00
23677;BME280;31493;49.058;12.190;2023-04-19T03:33:29;96403.16;;;6.17;100.00
23677;BME280;31493;49.058;12.190;2023-04-19T03:35:56;96388.56;;;6.17;100.00
23677;BME280;31493;49.058;12.190;2023-04-19T03:38:23;96398.09;;;6.15;100.00
23677;BME280;31493;49.058;12.190;2023-04-19T03:40:51;96399.88;;;6.13;100.00
23677;BME280;31493;49.058;12.190;2023-04-19T03:43:20;96396.63;;;6.10;100.00
23677;BME280;31493;49.058;12.190;2023-04-19T03:45:49;96402.03;;;6.04;100.00
23677;BME280;31493;49.058;12.190;2023-04-19T03:48:16;96404.53;;;6.05;100.00
23677;BME280;31493;49.058;12.190;2023-04-19T03:50:43;96398.47;;;6.06;100.00
23677;BME280;31493;49.058;12.190;2023-04-19T03:53:10;96401.03;;;6.06;100.00
23677;BME280;31493;49.058;12.190;2023-04-19T03:55:37;96394.25;;;6.05;100.00
23677;BME280;31493;49.058;12.190;2023-04-19T03:58:05;96387.56;;;6.01;100.00
23677;BME280;31493;49.058;12.190;2023-04-19T04:00:32;96394.44;;;6.01;100.00
23677;BME280;31493;49.058;12.190;2023-04-19T04:02:59;96393.59;;;6.00;100.00
23677;BME280;31493;49.058;12.190;2023-04-19T04:05:26;96408.09;;;6.03;100.00
23677;BME280;31493;49.058;12.190;2023-04-19T04:07:53;96398.75;;;6.00;100.00
23677;BME280;31493;49.058;12.190;2023-04-19T04:10:21;96397.53;;;5.88;100.00
23677;BME280;31493;49.058;12.190;2023-04-19T04:12:48;96400.16;;;5.87;100.00
23677;BME280;31493;49.058;12.190;2023-04-19T04:15:16;96390.59;;;5.90;100.00
23677;BME280;31493;49.058;12.190;2023-04-19T04:17:43;96400.84;;;5.92;100.00
23677;BME280;31493;49.058;12.190;2023-04-19T04:20:11;96390.66;;;5.89;100.00
23677;BME280;31493;49.058;12.190;2023-04-19T04:22:40;96389.06;;;5.86;100.00
23677;BME280;31493;49.058;12.190;2023-04-19T04:25:07;96390.69;;;5.69;100.00
23677;BME280;31493;49.058;12.190;2023-04-19T04:27:35;96387.44;;;5.65;100.00
23677;BME280;31493;49.058;12.190;2023-04-19T04:30:03;96384.41;;;5.55;100.00
23677;BME280;31493;49.058;12.190;2023-04-19T04:32:31;96395.63;;;5.73;100.00
23677;BME280;31493;49.058;12.190;2023-04-19T04:35:00;96388.84;;;5.72;100.00
23677;BME280;31493;49.058;12.190;2023-04-19T04:37:27;96381.50;;;5.83;100.00
23677;BME280;31493;49.058;12.190;2023-04-19T04:39:54;96390.72;;;5.87;100.00
23677;BME280;31493;49.058;12.190;2023-04-19T04:42:21;96397.94;;;5.79;100.00
23677;BME280;31493;49.058;12.190;2023-04-19T04:44:48;96397.53;;;5.88;100.00
23677;BME280;31493;49.058;12.190;2023-04-19T04:47:16;96385.25;;;5.95;100.00
23677;BME280;31493;49.058;12.190;2023-04-19T04:49:45;96376.97;;;6.09;100.00
23677;BME280;31493;49.058;12.190;2023-04-19T04:52:12;96376.97;;;5.88;100.00
23677;BME280;31493;49.058;12.190;2023-04-19T04:54:39;96371.81;;;5.88;100.00
23677;BME280;31493;49.058;12.190;2023-04-19T04:57:07;96381.19;;;5.91;100.00
23677;BME280;31493;49.058;12.190;2023-04-19T04:59:34;96373.84;;;6.02;100.00
23677;BME280;31493;49.058;12.190;2023-04-19T05:02:02;96372.84;;;6.24;100.00
23677;BME280;31493;49.058;12.190;2023-04-19T05:04:29;96373.25;;;6.52;100.00
23677;BME280;31493;49.058;12.190;2023-04-19T05:06:57;96375.34;;;6.06;100.00
23677;BME280;31493;49.058;12.190;2023-04-19T05:09:24;96374.38;;;6.09;100.00
23677;BME280;31493;49.058;12.190;2023-04-19T05:11:51;96380.38;;;6.09;100.00
23677;BME280;31493;49.058;12.190;2023-04-19T05:14:19;96377.63;;;6.12;100.00
23677;BME280;31493;49.058;12.190;2023-04-19T05:16:46;96385.50;;;6.09;100.00
23677;BME280;31493;49.058;12.190;2023-04-19T05:19:13;96375.03;;;6.14;100.00
23677;BME280;31493;49.058;12.190;2023-04-19T05:21:40;96384.59;;;6.10;100.00
23677;BME280;31493;49.058;12.190;2023-04-19T05:24:08;96376.88;;;6.10;100.00
23677;BME280;31493;49.058;12.190;2023-04-19T05:26:35;96380.22;;;6.12;100.00
23677;BME280;31493;49.058;12.190;2023-04-19T05:29:02;96377.59;;;6.14;100.00
23677;BME280;31493;49.058;12.190;2023-04-19T05:31:30;96376.25;;;6.24;100.00
23677;BME280;31493;49.058;12.190;2023-04-19T05:33:57;96363.47;;;6.23;100.00
23677;BME280;31493;49.058;12.190;2023-04-19T05:36:24;96363.19;;;6.29;100.00
23677;BME280;31493;49.058;12.190;2023-04-19T05:38:51;96358.81;;;6.31;100.00
23677;BME280;31493;49.058;12.190;2023-04-19T05:41:20;96356.78;;;6.37;100.00
23677;BME280;31493;49.058;12.190;2023-04-19T05:43:47;96367.22;;;6.34;100.00
23677;BME280;31493;49.058;12.190;2023-04-19T05:46:14;96368.81;;;6.37;100.00
23677;BME280;31493;49.058;12.190;2023-04-19T05:48:41;96347.19;;;6.41;100.00
23677;BME280;31493;49.058;12.190;2023-04-19T05:51:08;96353.31;;;6.38;100.00
23677;BME280;31493;49.058;12.190;2023-04-19T05:53:35;96355.44;;;6.47;100.00
23677;BME280;31493;49.058;12.190;2023-04-19T05:56:02;96350.22;;;6.49;100.00
23677;BME280;31493;49.058;12.190;2023-04-19T05:58:30;96346.44;;;6.39;100.00
23677;BME280;31493;49.058;12.190;2023-04-19T06:00:57;96351.75;;;6.53;100.00
23677;BME280;31493;49.058;12.190;2023-04-19T06:03:24;96346.44;;;6.39;100.00
23677;BME280;31493;49.058;12.190;2023-04-19T06:05:51;96357.41;;;6.42;100.00
23677;BME280;31493;49.058;12.190;2023-04-19T06:08:18;96354.06;;;6.40;100.00
23677;BME280;31493;49.058;12.190;2023-04-19T06:10:46;96356.66;;;6.40;100.00
23677;BME280;31493;49.058;12.190;2023-04-19T06:13:14;96341.13;;;6.42;100.00
23677;BME280;31493;49.058;12.190;2023-04-19T06:15:43;96356.16;;;6.51;100.00
23677;BME280;31493;49.058;12.190;2023-04-19T06:18:10;96352.13;;;6.45;100.00
23677;BME280;31493;49.058;12.190;2023-04-19T06:20:37;96347.59;;;6.51;100.00
23677;BME280;31493;49.058;12.190;2023-04-19T06:23:04;96350.19;;;6.51;100.00
23677;BME280;31493;49.058;12.190;2023-04-19T06:25:31;96346.97;;;6.45;100.00
23677;BME280;31493;49.058;12.190;2023-04-19T06:27:59;96356.34;;;6.46;100.00
23677;BME280;31493;49.058;12.190;2023-04-19T06:30:26;96340.94;;;6.46;100.00
23677;BME280;31493;49.058;12.190;2023-04-19T06:32:54;96349.25;;;6.52;100.00
23677;BME280;31493;49.058;12.190;2023-04-19T06:35:21;96349.09;;;6.55;100.00
23677;BME280;31493;49.058;12.190;2023-04-19T06:37:49;96350.75;;;6.56;100.00
23677;BME280;31493;49.058;12.190;2023-04-19T06:40:17;96347.22;;;6.58;100.00
23677;BME280;31493;49.058;12.190;2023-04-19T06:42:44;96347.16;;;6.60;100.00
23677;BME280;31493;49.058;12.190;2023-04-19T06:45:11;96346.69;;;6.69;100.00
23677;BME280;31493;49.058;12.190;2023-04-19T06:47:39;96351.00;;;6.68;100.00
23677;BME280;31493;49.058;12.190;2023-04-19T06:50:09;96347.00;;;6.63;100.00
23677;BME280;31493;49.058;12.190;2023-04-19T06:52:36;96346.16;;;6.62;100.00
23677;BME280;31493;49.058;12.190;2023-04-19T06:55:04;96345.63;;;6.56;100.00
23677;BME280;31493;49.058;12.190;2023-04-19T06:57:31;96353.66;;;6.67;100.00
23677;BME280;31493;49.058;12.190;2023-04-19T06:59:58;96342.34;;;6.88;100.00
23677;BME280;31493;49.058;12.190;2023-04-19T07:02:26;96342.16;;;6.74;100.00
23677;BME280;31493;49.058;12.190;2023-04-19T07:04:53;96341.34;;;6.73;100.00
23677;BME280;31493;49.058;12.190;2023-04-19T07:07:21;96347.09;;;6.79;100.00
23677;BME280;31493;49.058;12.190;2023-04-19T07:09:48;96339.16;;;6.83;100.00
23677;BME280;31493;49.058;12.190;2023-04-19T07:12:15;96338.56;;;6.78;100.00
23677;BME280;31493;49.058;12.190;2023-04-19T07:14:42;96330.44;;;6.86;100.00
23677;BME280;31493;49.058;12.190;2023-04-19T07:17:09;96322.59;;;6.89;100.00
23677;BME280;31493;49.058;12.190;2023-04-19T07:19:37;96339.78;;;6.88;100.00
23677;BME280;31493;49.058;12.190;2023-04-19T07:22:05;96331.06;;;6.91;100.00
23677;BME280;31493;49.058;12.190;2023-04-19T07:24:33;96335.06;;;6.96;100.00
23677;BME280;31493;49.058;12.190;2023-04-19T07:27:00;96336.81;;;6.96;100.00
23677;BME280;31493;49.058;12.190;2023-04-19T07:29:27;96330.94;;;6.94;100.00
23677;BME280;31493;49.058;12.190;2023-04-19T07:31:54;96323.03;;;6.80;100.00
23677;BME280;31493;49.058;12.190;2023-04-19T07:34:21;96324.34;;;6.88;100.00
23677;BME280;31493;49.058;12.190;2023-04-19T07:36:48;96324.09;;;6.93;100.00
23677;BME280;31493;49.058;12.190;2023-04-19T07:39:15;96328.03;;;6.83;100.00
23677;BME280;31493;49.058;12.190;2023-04-19T07:41:44;96330.22;;;6.90;100.00
23677;BME280;31493;49.058;12.190;2023-04-19T07:44:11;96329.84;;;6.81;100.00
23677;BME280;31493;49.058;12.190;2023-04-19T07:46:40;96329.63;;;6.85;100.00
23677;BME280;31493;49.058;12.190;2023-04-19T07:49:08;96325.22;;;6.87;100.00
23677;BME280;31493;49.058;12.190;2023-04-19T07:51:35;96315.91;;;6.85;100.00
23677;BME280;31493;49.058;12.190;2023-04-19T07:54:02;96315.00;;;6.86;100.00
23677;BME280;31493;49.058;12.190;2023-04-19T07:56:29;96320.03;;;6.89;100.00
23677;BME280;31493;49.058;12.190;2023-04-19T07:58:58;96317.66;;;6.84;100.00
23677;BME280;31493;49.058;12.190;2023-04-19T08:01:25;96320.06;;;7.05;100.00
23677;BME280;31493;49.058;12.190;2023-04-19T08:03:52;96325.53;;;6.98;100.00
23677;BME280;31493;49.058;12.190;2023-04-19T08:06:19;96318.63;;;6.99;100.00
23677;BME280;31493;49.058;12.190;2023-04-19T08:08:47;96316.53;;;7.07;100.00
23677;BME280;31493;49.058;12.190;2023-04-19T08:11:14;96306.69;;;6.98;100.00
23677;BME280;31493;49.058;12.190;2023-04-19T08:13:41;96300.84;;;7.12;100.00
23677;BME280;31493;49.058;12.190;2023-04-19T08:16:09;96309.63;;;7.08;100.00
23677;BME280;31493;49.058;12.190;2023-04-19T08:18:36;96305.97;;;7.12;100.00
23677;BME280;31493;49.058;12.190;2023-04-19T08:21:04;96312.44;;;7.03;100.00
23677;BME280;31493;49.058;12.190;2023-04-19T08:23:31;96309.88;;;7.03;100.00
23677;BME280;31493;49.058;12.190;2023-04-19T08:25:58;96311.81;;;6.98;100.00
23677;BME280;31493;49.058;12.190;2023-04-19T08:28:25;96318.59;;;7.00;100.00
23677;BME280;31493;49.058;12.190;2023-04-19T08:30:53;96307.97;;;7.07;100.00
23677;BME280;31493;49.058;12.190;2023-04-19T08:33:21;96311.00;;;6.97;100.00
23677;BME280;31493;49.058;12.190;2023-04-19T08:35:48;96297.50;;;7.10;100.00
23677;BME280;31493;49.058;12.190;2023-04-19T08:38:15;96290.00;;;7.05;100.00
23677;BME280;31493;49.058;12.190;2023-04-19T08:40:45;96295.22;;;7.21;100.00
23677;BME280;31493;49.058;12.190;2023-04-19T08:43:14;96299.75;;;7.33;100.00
23677;BME280;31493;49.058;12.190;2023-04-19T08:45:45;96295.00;;;7.25;100.00
23677;BME280;31493;49.058;12.190;2023-04-19T08:48:14;96289.47;;;7.33;100.00
23677;BME280;31493;49.058;12.190;2023-04-19T08:50:42;96296.13;;;7.37;100.00
23677;BME280;31493;49.058;12.190;2023-04-19T08:53:11;96286.25;;;7.45;100.00
23677;BME280;31493;49.058;12.190;2023-04-19T08:55:40;96296.22;;;7.51;100.00
23677;BME280;31493;49.058;12.190;2023-04-19T08:58:07;96288.66;;;7.48;100.00
23677;BME280;31493;49.058;12.190;2023-04-19T09:00:38;96278.63;;;7.60;100.00
23677;BME280;31493;49.058;12.190;2023-04-19T09:03:06;96274.69;;;7.52;100.00
23677;BME280;31493;49.058;12.190;2023-04-19T09:05:33;96285.25;;;7.48;100.00
23677;BME280;31493;49.058;12.190;2023-04-19T09:08:21;96282.78;;;7.62;100.00
23677;BME280;31493;49.058;12.190;2023-04-19T09:10:53;96280.44;;;7.58;100.00
23677;BME280;31493;49.058;12.190;2023-04-19T09:13:20;96275.13;;;7.45;100.00
23677;BME280;31493;49.058;12.190;2023-04-19T09:15:47;96277.91;;;7.40;100.00
23677;BME280;31493;49.058;12.190;2023-04-19T09:18:14;96277.00;;;7.41;100.00
23677;BME280;31493;49.058;12.190;2023-04-19T09:20:42;96276.78;;;7.46;100.00
23677;BME280;31493;49.058;12.190;2023-04-19T09:23:11;96265.03;;;7.40;100.00
23677;BME280;31493;49.058;12.190;2023-04-19T09:25:50;96267.28;;;7.46;100.00
23677;BME280;31493;49.058;12.190;2023-04-19T09:28:18;96267.81;;;7.53;100.00
23677;BME280;31493;49.058;12.190;2023-04-19T09:30:45;96263.53;;;7.36;100.00
23677;BME280;31493;49.058;12.190;2023-04-19T09:33:12;96263.47;;;7.38;100.00
23677;BME280;31493;49.058;12.190;2023-04-19T09:35:41;96264.75;;;7.29;100.00
23677;BME280;31493;49.058;12.190;2023-04-19T09:38:09;96262.75;;;7.18;100.00
23677;BME280;31493;49.058;12.190;2023-04-19T09:40:38;96260.25;;;7.17;100.00
23677;BME280;31493;49.058;12.190;2023-04-19T09:43:07;96259.94;;;7.23;100.00
23677;BME280;31493;49.058;12.190;2023-04-19T09:45:40;96252.16;;;7.24;100.00
23677;BME280;31493;49.058;12.190;2023-04-19T09:48:09;96255.78;;;7.20;100.00
23677;BME280;31493;49.058;12.190;2023-04-19T09:50:50;96251.03;;;7.13;100.00
23677;BME280;31493;49.058;12.190;2023-04-19T09:53:18;96250.88;;;6.98;100.00
23677;BME280;31493;49.058;12.190;2023-04-19T09:55:45;96269.47;;;6.88;100.00
23677;BME280;31493;49.058;12.190;2023-04-19T09:58:14;96257.50;;;6.69;100.00
23677;BME280;31493;49.058;12.190;2023-04-19T10:00:42;96271.56;;;6.62;100.00
23677;BME280;31493;49.058;12.190;2023-04-19T10:03:13;96252.25;;;6.36;100.00
23677;BME280;31493;49.058;12.190;2023-04-19T10:05:42;96261.94;;;6.49;100.00
23677;BME280;31493;49.058;12.190;2023-04-19T10:08:10;96263.81;;;6.28;100.00
23677;BME280;31493;49.058;12.190;2023-04-19T10:10:39;96262.16;;;6.27;100.00
23677;BME280;31493;49.058;12.190;2023-04-19T10:13:07;96261.97;;;6.12;100.00
23677;BME280;31493;49.058;12.190;2023-04-19T10:15:40;96258.72;;;6.09;100.00
23677;BME280;31493;49.058;12.190;2023-04-19T10:18:09;96259.22;;;5.98;100.00
23677;BME280;31493;49.058;12.190;2023-04-19T10:20:40;96251.06;;;6.07;100.00
23677;BME280;31493;49.058;12.190;2023-04-19T10:23:08;96253.91;;;6.01;100.00
23677;BME280;31493;49.058;12.190;2023-04-19T10:25:36;96257.94;;;6.07;100.00
23677;BME280;31493;49.058;12.190;2023-04-19T10:28:04;96251.97;;;6.06;100.00
23677;BME280;31493;49.058;12.190;2023-04-19T10:30:31;96247.28;;;5.97;100.00
23677;BME280;31493;49.058;12.190;2023-04-19T10:33:00;96256.19;;;5.88;100.00
23677;BME280;31493;49.058;12.190;2023-04-19T10:35:33;96250.13;;;5.72;100.00
23677;BME280;31493;49.058;12.190;2023-04-19T10:38:07;96242.88;;;5.80;100.00
23677;BME280;31493;49.058;12.190;2023-04-19T10:40:53;96244.97;;;5.72;100.00
23677;BME280;31493;49.058;12.190;2023-04-19T10:43:22;96256.72;;;5.59;100.00
23677;BME280;31493;49.058;12.190;2023-04-19T10:45:49;96253.09;;;5.63;100.00
23677;BME280;31493;49.058;12.190;2023-04-19T10:48:34;96247.47;;;5.74;100.00
23677;BME280;31493;49.058;12.190;2023-04-19T10:51:04;96238.44;;;5.84;100.00
23677;BME280;31493;49.058;12.190;2023-04-19T10:53:49;96242.41;;;5.53;100.00
23677;BME280;31493;49.058;12.190;2023-04-19T10:56:18;96232.63;;;5.61;100.00
23677;BME280;31493;49.058;12.190;2023-04-19T11:01:33;96228.13;;;5.66;100.00
23677;BME280;31493;49.058;12.190;2023-04-19T11:04:04;96232.75;;;5.77;100.00
23677;BME280;31493;49.058;12.190;2023-04-19T11:06:31;96234.63;;;5.74;100.00
23677;BME280;31493;49.058;12.190;2023-04-19T11:08:59;96232.44;;;5.47;100.00
23677;BME280;31493;49.058;12.190;2023-04-19T11:11:27;96231.72;;;5.44;100.00
23677;BME280;31493;49.058;12.190;2023-04-19T11:13:55;96220.00;;;5.38;100.00
23677;BME280;31493;49.058;12.190;2023-04-19T11:16:23;96228.94;;;5.48;100.00
23677;BME280;31493;49.058;12.190;2023-04-19T11:18:50;96217.63;;;5.52;100.00
23677;BME280;31493;49.058;12.190;2023-04-19T11:21:19;96217.97;;;5.45;100.00
23677;BME280;31493;49.058;12.190;2023-04-19T11:23:46;96221.91;;;5.52;100.00
23677;BME280;31493;49.058;12.190;2023-04-19T11:26:14;96223.66;;;5.51;100.00
23677;BME280;31493;49.058;12.190;2023-04-19T11:28:43;96230.06;;;5.61;100.00
23677;BME280;31493;49.058;12.190;2023-04-19T11:31:10;96205.00;;;5.48;100.00
23677;BME280;31493;49.058;12.190;2023-04-19T11:33:37;96207.84;;;5.60;100.00
23677;BME280;31493;49.058;12.190;2023-04-19T11:36:10;96209.09;;;5.52;100.00
23677;BME280;31493;49.058;12.190;2023-04-19T11:38:38;96202.16;;;5.73;100.00
23677;BME280;31493;49.058;12.190;2023-04-19T11:41:06;96201.16;;;5.75;100.00
23677;BME280;31493;49.058;12.190;2023-04-19T11:43:34;96193.66;;;5.89;100.00
23677;BME280;31493;49.058;12.190;2023-04-19T11:46:04;96198.84;;;5.88;100.00
23677;BME280;31493;49.058;12.190;2023-04-19T11:48:32;96192.13;;;6.04;100.00
23677;BME280;31493;49.058;12.190;2023-04-19T11:51:00;96202.25;;;5.88;100.00
23677;BME280;31493;49.058;12.190;2023-04-19T11:53:29;96190.38;;;6.05;100.00
23677;BME280;31493;49.058;12.190;2023-04-19T11:56:03;96190.91;;;6.11;100.00
23677;BME280;31493;49.058;12.190;2023-04-19T11:58:32;96180.25;;;6.19;100.00
23677;BME280;31493;49.058;12.190;2023-04-19T12:01:02;96179.94;;;6.25;100.00
23677;BME280;31493;49.058;12.190;2023-04-19T12:03:31;96174.09;;;6.56;100.00
23677;BME280;31493;49.058;12.190;2023-04-19T12:06:00;96159.16;;;6.30;100.00
23677;BME280;31493;49.058;12.190;2023-04-19T12:08:30;96167.91;;;6.43;100.00
23677;BME280;31493;49.058;12.190;2023-04-19T12:10:59;96171.63;;;6.55;100.00
23677;BME280;31493;49.058;12.190;2023-04-19T12:13:28;96165.81;;;6.51;100.00
23677;BME280;31493;49.058;12.190;2023-04-19T12:15:56;96160.41;;;6.73;100.00
23677;BME280;31493;49.058;12.190;2023-04-19T12:18:23;96147.53;;;7.22;100.00
23677;BME280;31493;49.058;12.190;2023-04-19T12:20:51;96148.38;;;7.70;100.00
23677;BME280;31493;49.058;12.190;2023-04-19T12:23:20;96158.00;;;7.66;100.00
23677;BME280;31493;49.058;12.190;2023-04-19T12:25:47;96152.47;;;8.04;100.00
23677;BME280;31493;49.058;12.190;2023-04-19T12:28:16;96149.25;;;8.30;100.00
23677;BME280;31493;49.058;12.190;2023-04-19T12:30:43;96146.69;;;8.30;100.00
23677;BME280;31493;49.058;12.190;2023-04-19T12:33:10;96141.94;;;8.53;100.00
23677;BME280;31493;49.058;12.190;2023-04-19T12:35:37;96142.59;;;8.42;100.00
23677;BME280;31493;49.058;12.190;2023-04-19T12:38:04;96143.97;;;8.18;100.00
23677;BME280;31493;49.058;12.190;2023-04-19T12:40:32;96142.09;;;8.05;100.00
23677;BME280;31493;49.058;12.190;2023-04-19T12:42:59;96135.25;;;8.34;100.00
23677;BME280;31493;49.058;12.190;2023-04-19T12:45:27;96141.03;;;7.94;100.00
23677;BME280;31493;49.058;12.190;2023-04-19T12:47:54;96122.66;;;8.00;100.00
23677;BME280;31493;49.058;12.190;2023-04-19T12:50:21;96132.69;;;7.74;100.00
23677;BME280;31493;49.058;12.190;2023-04-19T12:52:48;96129.22;;;7.90;100.00
23677;BME280;31493;49.058;12.190;2023-04-19T12:55:18;96141.13;;;7.92;100.00
23677;BME280;31493;49.058;12.190;2023-04-19T12:57:45;96130.69;;;7.79;100.00